createdAt,value
2018-04-17T00:01:16.806Z,56.80
2018-04-17T00:03:44.357Z,53.00
2018-04-17T00:06:11.927Z,52.40
2018-04-17T00:08:39.481Z,56.60
2018-04-17T00:11:07.053Z,55.20
2018-04-17T00:13:34.598Z,56.10
2018-04-17T00:16:02.177Z,55.50
2018-04-17T00:18:29.728Z,55.40
2018-04-17T00:20:57.296Z,53.90
2018-04-17T00:23:24.841Z,57.00
2018-04-17T00:25:52.393Z,53.20
2018-04-17T00:28:19.956Z,55.50
2018-04-17T00:30:47.501Z,55.50
2018-04-17T00:33:15.073Z,55.90
2018-04-17T00:35:42.679Z,58.30
2018-04-17T00:38:10.258Z,57.00
2018-04-17T00:40:37.810Z,58.90
2018-04-17T00:43:05.378Z,59.30
2018-04-17T00:45:32.924Z,58.80
2018-04-17T00:48:00.502Z,55.90
2018-04-17T00:50:28.054Z,53.60
2018-04-17T00:52:55.624Z,55.90
2018-04-17T00:55:23.165Z,57.60
2018-04-17T00:57:50.742Z,55.10
2018-04-17T01:00:18.295Z,54.80
2018-04-17T01:02:45.874Z,54.10
2018-04-17T01:05:13.420Z,57.70
2018-04-17T01:07:40.989Z,53.90
2018-04-17T01:10:08.592Z,55.50
2018-04-17T01:12:36.921Z,56.30
2018-04-17T01:15:04.518Z,56.20
2018-04-17T01:17:32.081Z,54.90
2018-04-17T01:19:59.628Z,60.50
2018-04-17T01:22:27.197Z,57.50
2018-04-17T01:24:54.744Z,56.80
2018-04-17T01:27:22.280Z,56.30
2018-04-17T01:29:49.832Z,54.20
2018-04-17T01:32:17.373Z,57.10
2018-04-17T01:34:44.940Z,56.70
2018-04-17T01:37:12.477Z,57.70
2018-04-17T01:39:40.033Z,59.70
2018-04-17T01:42:07.565Z,55.40
2018-04-17T01:44:35.126Z,60.20
2018-04-17T01:47:02.671Z,60.10
2018-04-17T01:49:30.232Z,62.30
2018-04-17T01:51:57.765Z,60.00
2018-04-17T01:54:25.325Z,57.40
2018-04-17T01:56:52.865Z,56.60
2018-04-17T01:59:20.422Z,59.60
2018-04-17T02:01:47.952Z,58.90
2018-04-17T02:04:15.516Z,57.80
2018-04-17T02:06:43.050Z,56.90
2018-04-17T02:09:10.603Z,58.70
2018-04-17T02:11:38.141Z,57.90
2018-04-17T02:14:05.696Z,57.30
2018-04-17T02:16:33.232Z,57.80
2018-04-17T02:19:00.795Z,58.00
2018-04-17T02:21:28.345Z,61.70
2018-04-17T02:23:55.909Z,59.20
2018-04-17T02:26:23.466Z,58.60
2018-04-17T02:28:51.205Z,61.10
2018-04-17T02:31:18.757Z,55.70
2018-04-17T02:33:47.886Z,62.70
2018-04-17T02:36:15.437Z,62.70
2018-04-17T02:38:43.036Z,57.30
2018-04-17T02:41:10.584Z,57.20
2018-04-17T02:43:38.150Z,57.50
2018-04-17T02:46:05.696Z,56.70
2018-04-17T02:48:33.250Z,58.40
2018-04-17T02:51:00.827Z,61.30
2018-04-17T02:53:28.366Z,56.90
2018-04-17T02:55:55.933Z,56.40
2018-04-17T02:58:23.474Z,57.70
2018-04-17T03:00:51.037Z,57.10
2018-04-17T03:03:18.572Z,58.00
2018-04-17T03:05:46.147Z,60.80
2018-04-17T03:08:13.693Z,61.50
2018-04-17T03:10:41.258Z,56.50
2018-04-17T03:13:08.805Z,60.90
2018-04-17T03:15:36.374Z,57.80
2018-04-17T03:18:03.938Z,58.80
2018-04-17T03:20:31.510Z,59.90
2018-04-17T03:22:59.058Z,59.90
2018-04-17T03:25:26.629Z,58.80
2018-04-17T03:27:54.977Z,59.80
2018-04-17T03:30:22.541Z,59.80
2018-04-17T03:32:50.090Z,56.20
2018-04-17T03:35:17.670Z,59.60
2018-04-17T03:37:45.219Z,58.00
2018-04-17T03:40:12.788Z,56.60
2018-04-17T03:42:40.338Z,58.20
2018-04-17T03:45:07.905Z,60.50
2018-04-17T03:47:35.450Z,60.10
2018-04-17T03:50:03.013Z,59.70
2018-04-17T03:52:30.557Z,64.60
2018-04-17T03:54:58.109Z,61.60
2018-04-17T03:57:25.691Z,59.00
2018-04-17T03:59:53.241Z,56.80
2018-04-17T04:02:20.809Z,62.70
2018-04-17T04:04:48.352Z,58.40
2018-04-17T04:07:15.918Z,59.30
2018-04-17T04:09:43.469Z,56.50
2018-04-17T04:12:11.034Z,59.10
2018-04-17T04:14:38.580Z,57.40
2018-04-17T04:17:17.874Z,61.10
2018-04-17T04:19:57.269Z,58.80
2018-04-17T04:22:36.557Z,64.20
2018-04-17T04:25:15.845Z,56.20
2018-04-17T04:27:43.416Z,57.70
2018-04-17T04:30:10.956Z,57.60
2018-04-17T04:32:38.531Z,63.20
2018-04-17T04:35:06.079Z,61.50
2018-04-17T04:37:33.645Z,56.50
2018-04-17T04:40:01.193Z,59.10
2018-04-17T04:42:28.758Z,59.30
2018-04-17T04:44:57.065Z,60.80
2018-04-17T04:47:24.643Z,60.70
2018-04-17T04:49:52.185Z,60.90
2018-04-17T04:52:19.749Z,62.50
2018-04-17T04:54:47.309Z,57.20
2018-04-17T04:57:14.879Z,64.00
2018-04-17T04:59:43.198Z,59.00
2018-04-17T05:02:10.768Z,59.00
2018-04-17T05:04:38.304Z,60.10
2018-04-17T05:07:05.874Z,63.10
2018-04-17T05:09:33.415Z,65.40
2018-04-17T05:12:00.990Z,59.80
2018-04-17T05:14:28.543Z,62.10
2018-04-17T05:16:56.118Z,57.50
2018-04-17T05:19:23.663Z,60.70
2018-04-17T05:21:51.230Z,58.70
2018-04-17T05:24:18.808Z,62.30
2018-04-17T05:26:46.818Z,58.90
2018-04-17T05:29:15.158Z,57.60
2018-04-17T05:31:42.708Z,57.70
2018-04-17T05:34:10.293Z,60.00
2018-04-17T05:36:37.849Z,61.40
2018-04-17T05:39:05.430Z,60.10
2018-04-17T05:41:32.974Z,66.30
2018-04-17T05:44:00.549Z,69.60
2018-04-17T05:46:28.872Z,64.60
2018-04-17T05:48:56.439Z,64.40
2018-04-17T05:51:23.992Z,68.00
2018-04-17T05:53:51.701Z,66.00
2018-04-17T05:56:19.251Z,68.20
2018-04-17T05:58:46.821Z,65.90
2018-04-17T06:01:15.133Z,62.00
2018-04-17T06:03:42.705Z,62.10
2018-04-17T06:06:10.258Z,61.20
2018-04-17T06:08:37.819Z,60.50
2018-04-17T06:11:05.365Z,59.80
2018-04-17T06:13:32.928Z,58.30
2018-04-17T06:16:00.482Z,58.40
2018-04-17T06:18:29.274Z,57.50
2018-04-17T06:20:56.833Z,56.30
2018-04-17T06:23:24.406Z,55.90
2018-04-17T06:25:51.953Z,55.40
2018-04-17T06:28:19.529Z,54.50
2018-04-17T06:30:47.093Z,54.00
2018-04-17T06:33:14.636Z,52.90
2018-04-17T06:35:42.212Z,53.10
2018-04-17T06:38:09.770Z,53.50
2018-04-17T06:40:37.346Z,52.40
2018-04-17T06:43:04.898Z,51.80
2018-04-17T06:45:32.465Z,48.80
2018-04-17T06:48:00.022Z,49.10
2018-04-17T06:50:27.597Z,46.30
2018-04-17T06:52:55.141Z,46.50
2018-04-17T06:55:22.726Z,47.80
2018-04-17T06:57:51.048Z,48.40
2018-04-17T07:00:18.621Z,48.50
2018-04-17T07:02:46.170Z,46.80
2018-04-17T07:05:13.767Z,47.00
2018-04-17T07:07:41.425Z,46.10
2018-04-17T07:10:09.757Z,45.40
2018-04-17T07:12:37.309Z,45.40
2018-04-17T07:15:04.881Z,47.00
2018-04-17T07:17:32.431Z,44.80
2018-04-17T07:20:00.008Z,42.20
2018-04-17T07:22:27.570Z,43.10
2018-04-17T07:24:55.149Z,42.50
2018-04-17T07:27:23.467Z,41.40
2018-04-17T07:29:51.045Z,41.30
2018-04-17T07:32:18.593Z,41.00
2018-04-17T07:34:46.178Z,41.00
2018-04-17T07:37:13.812Z,39.60
2018-04-17T07:39:41.442Z,41.00
2018-04-17T07:42:09.902Z,39.60
2018-04-17T07:44:37.587Z,39.80
2018-04-17T07:47:17.025Z,39.50
2018-04-17T07:49:44.578Z,38.80
2018-04-17T07:52:12.916Z,36.80
2018-04-17T07:54:40.466Z,35.90
2018-04-17T07:57:09.689Z,35.00
2018-04-17T07:59:37.255Z,35.10
2018-04-17T08:02:04.884Z,32.70
2018-04-17T08:04:32.443Z,34.50
2018-04-17T08:07:00.073Z,36.70
2018-04-17T08:09:27.623Z,33.90
2018-04-17T08:11:55.196Z,35.70
2018-04-17T08:14:22.751Z,36.00
2018-04-17T08:16:50.328Z,35.30
2018-04-17T08:19:17.880Z,36.40
2018-04-17T08:21:45.446Z,31.20
2018-04-17T08:24:12.995Z,33.90
2018-04-17T08:26:40.574Z,33.70
2018-04-17T08:29:08.122Z,31.60
2018-04-17T08:31:35.697Z,31.50
2018-04-17T08:34:03.286Z,31.90
2018-04-17T08:36:31.625Z,33.20
2018-04-17T08:38:59.186Z,33.40
2018-04-17T08:41:26.763Z,29.20
2018-04-17T08:43:54.321Z,29.90
2018-04-17T08:46:21.893Z,34.20
2018-04-17T08:48:50.241Z,32.80
2018-04-17T08:51:17.932Z,32.70
2018-04-17T08:53:46.359Z,29.30
2018-04-17T08:56:13.914Z,29.30
2018-04-17T08:58:41.489Z,27.40
2018-04-17T09:01:09.047Z,28.30
2018-04-17T09:03:36.618Z,30.90
2018-04-17T09:06:04.170Z,29.50
2018-04-17T09:08:31.749Z,29.70
2018-04-17T09:10:59.302Z,28.40
2018-04-17T09:13:26.872Z,30.40
2018-04-17T09:15:54.421Z,30.80
2018-04-17T09:18:21.999Z,30.70
2018-04-17T09:20:49.549Z,29.30
2018-04-17T09:23:17.121Z,29.00
2018-04-17T09:25:44.668Z,30.00
2018-04-17T09:28:12.243Z,25.90
2018-04-17T09:30:40.560Z,27.50
2018-04-17T09:33:08.144Z,27.10
2018-04-17T09:35:35.695Z,29.30
2018-04-17T09:38:03.269Z,29.00
2018-04-17T09:40:30.821Z,29.70
2018-04-17T09:42:58.394Z,31.10
2018-04-17T09:45:25.957Z,27.60
2018-04-17T09:47:53.529Z,27.50
2018-04-17T09:50:21.081Z,27.40
2018-04-17T09:52:48.653Z,25.80
2018-04-17T09:55:16.973Z,29.60
2018-04-17T09:57:44.546Z,29.20
2018-04-17T10:00:12.102Z,28.10
2018-04-17T10:02:39.676Z,30.00
2018-04-17T10:05:07.226Z,28.20
2018-04-17T10:07:34.783Z,25.90
2018-04-17T10:10:02.359Z,27.60
2018-04-17T10:12:29.926Z,26.40
2018-04-17T10:14:57.511Z,29.40
2018-04-17T10:17:25.068Z,27.70
2018-04-17T10:19:52.665Z,26.80
2018-04-17T10:22:20.208Z,28.30
2018-04-17T10:24:47.786Z,29.40
2018-04-17T10:27:15.342Z,28.80
2018-04-17T10:29:42.917Z,28.80
2018-04-17T10:32:10.464Z,28.30
2018-04-17T10:34:38.046Z,28.20
2018-04-17T10:37:05.602Z,29.50
2018-04-17T10:39:33.169Z,27.30
2018-04-17T10:42:00.713Z,25.80
2018-04-17T10:44:28.289Z,26.70
2018-04-17T10:46:55.841Z,27.30
2018-04-17T10:49:23.412Z,28.70
2018-04-17T10:51:50.965Z,27.20
2018-04-17T10:54:18.538Z,27.60
2018-04-17T10:56:46.086Z,28.20
2018-04-17T10:59:13.673Z,29.10
2018-04-17T11:01:41.220Z,29.00
2018-04-17T11:04:08.837Z,28.50
2018-04-17T11:06:36.366Z,29.10
2018-04-17T11:09:03.942Z,29.50
2018-04-17T11:11:31.587Z,29.40
2018-04-17T11:13:59.152Z,30.00
2018-04-17T11:16:26.698Z,29.80
2018-04-17T11:18:54.283Z,29.60
2018-04-17T11:21:21.902Z,30.80
2018-04-17T11:23:49.468Z,30.10
2018-04-17T11:26:17.017Z,30.20
2018-04-17T11:28:44.606Z,30.70
2018-04-17T11:31:12.153Z,30.70
2018-04-17T11:33:39.717Z,30.60
2018-04-17T11:36:07.285Z,30.60
2018-04-17T11:38:34.839Z,31.50
2018-04-17T11:41:02.419Z,31.30
2018-04-17T11:43:29.977Z,30.30
2018-04-17T11:45:57.543Z,29.90
2018-04-17T11:48:25.088Z,30.00
2018-04-17T11:50:53.421Z,30.40
2018-04-17T11:53:20.974Z,30.40
2018-04-17T11:55:48.553Z,29.80
2018-04-17T11:58:16.097Z,31.00
2018-04-17T12:00:43.669Z,31.10
2018-04-17T12:03:11.212Z,32.70
2018-04-17T12:05:39.549Z,32.40
2018-04-17T12:08:07.107Z,32.50
2018-04-17T12:10:34.848Z,32.50
2018-04-17T12:13:02.412Z,32.10
2018-04-17T12:15:29.988Z,32.50
2018-04-17T12:17:57.539Z,32.70
2018-04-17T12:20:25.132Z,32.40
2018-04-17T12:22:52.685Z,32.10
2018-04-17T12:25:20.261Z,31.50
2018-04-17T12:27:47.812Z,31.50
2018-04-17T12:30:15.380Z,32.70
2018-04-17T12:32:43.698Z,32.30
2018-04-17T12:35:11.274Z,32.40
2018-04-17T12:37:38.822Z,33.40
2018-04-17T12:40:06.422Z,32.10
2018-04-17T12:42:34.735Z,33.00
2018-04-17T12:45:03.407Z,33.00
2018-04-17T12:47:30.965Z,33.20
2018-04-17T12:49:58.539Z,33.20
2018-04-17T12:52:26.089Z,32.70
2018-04-17T12:54:53.670Z,31.10
2018-04-17T12:57:21.217Z,31.20
2018-04-17T12:59:48.797Z,33.90
2018-04-17T13:02:16.353Z,33.80
2018-04-17T13:04:43.929Z,33.40
2018-04-17T13:07:11.473Z,33.10
2018-04-17T13:09:39.021Z,33.20
2018-04-17T13:12:06.605Z,33.60
2018-04-17T13:14:34.148Z,33.50
2018-04-17T13:17:01.723Z,33.60
2018-04-17T13:19:29.265Z,32.50
2018-04-17T13:21:56.845Z,31.20
2018-04-17T13:24:24.402Z,33.00
2018-04-17T13:26:51.977Z,33.20
2018-04-17T13:29:19.530Z,32.80
2018-04-17T13:31:47.774Z,33.40
2018-04-17T13:34:16.089Z,34.20
2018-04-17T13:36:43.669Z,34.20
2018-04-17T13:39:11.217Z,33.80
2018-04-17T13:41:39.571Z,33.80
2018-04-17T13:44:07.974Z,33.80
2018-04-17T13:46:36.317Z,31.70
2018-04-17T13:49:03.873Z,31.00
2018-04-17T13:51:32.053Z,32.90
2018-04-17T13:53:59.621Z,32.00
2018-04-17T13:56:27.198Z,34.10
2018-04-17T13:58:55.521Z,33.60
2018-04-17T14:01:23.093Z,33.40
2018-04-17T14:03:50.641Z,32.80
2018-04-17T14:06:18.218Z,33.90
2018-04-17T14:08:45.778Z,33.80
2018-04-17T14:11:13.358Z,33.40
2018-04-17T14:13:41.682Z,32.80
2018-04-17T14:16:09.255Z,32.70
2018-04-17T14:18:36.805Z,33.30
2018-04-17T14:21:04.373Z,32.00
2018-04-17T14:23:31.929Z,32.00
2018-04-17T14:25:59.503Z,31.10
2018-04-17T14:28:27.046Z,32.40
2018-04-17T14:30:54.614Z,31.10
2018-04-17T14:33:22.201Z,32.40
2018-04-17T14:35:49.761Z,33.60
2018-04-17T14:38:17.314Z,34.00
2018-04-17T14:40:44.904Z,34.00
2018-04-17T14:43:12.458Z,34.30
2018-04-17T14:45:40.807Z,34.10
2018-04-17T14:48:08.378Z,34.00
2018-04-17T14:50:35.933Z,33.80
2018-04-17T14:53:03.508Z,34.20
2018-04-17T14:55:31.831Z,33.60
2018-04-17T14:57:59.399Z,33.50
2018-04-17T15:00:26.962Z,33.70
2018-04-17T15:02:55.299Z,33.40
2018-04-17T15:05:22.854Z,33.50
2018-04-17T15:07:50.420Z,34.10
2018-04-17T15:10:17.963Z,33.90
2018-04-17T15:12:45.528Z,32.70
2018-04-17T15:15:13.093Z,33.60
2018-04-17T15:17:40.668Z,33.70
2018-04-17T15:20:08.209Z,33.20
2018-04-17T15:22:35.777Z,33.60
2018-04-17T15:25:03.326Z,34.20
2018-04-17T15:27:30.900Z,34.40
2018-04-17T15:29:58.454Z,33.00
2018-04-17T15:32:26.034Z,33.50
2018-04-17T15:34:53.581Z,33.70
2018-04-17T15:37:21.161Z,34.20
2018-04-17T15:39:48.707Z,34.70
2018-04-17T15:42:16.278Z,33.40
2018-04-17T15:44:43.825Z,32.80
2018-04-17T15:47:11.406Z,33.60
2018-04-17T15:49:38.962Z,33.70
2018-04-17T15:52:06.537Z,34.30
2018-04-17T15:54:34.105Z,34.60
2018-04-17T15:57:01.686Z,34.20
2018-04-17T15:59:29.245Z,33.30
2018-04-17T16:01:56.813Z,33.60
2018-04-17T16:04:24.366Z,33.90
2018-04-17T16:06:51.946Z,34.00
2018-04-17T16:09:19.496Z,33.60
2018-04-17T16:11:47.111Z,33.90
2018-04-17T16:14:14.666Z,33.70
2018-04-17T16:16:42.246Z,33.40
2018-04-17T16:19:10.560Z,33.70
2018-04-17T16:21:38.118Z,33.60
2018-04-17T16:24:05.698Z,33.60
2018-04-17T16:26:34.017Z,34.00
2018-04-17T16:29:02.357Z,34.50
2018-04-17T16:31:29.901Z,34.50
2018-04-17T16:33:57.469Z,33.80
2018-04-17T16:36:25.021Z,34.10
2018-04-17T16:38:52.591Z,33.80
2018-04-17T16:41:20.137Z,33.90
2018-04-17T16:43:47.705Z,34.00
2018-04-17T16:46:15.254Z,33.90
2018-04-17T16:48:42.834Z,33.20
2018-04-17T16:51:10.438Z,33.60
2018-04-17T16:53:37.973Z,34.10
2018-04-17T16:56:05.524Z,33.70
2018-04-17T16:58:33.870Z,34.20
2018-04-17T17:01:01.414Z,34.00
2018-04-17T17:03:28.985Z,34.90
2018-04-17T17:05:57.139Z,33.90
2018-04-17T17:08:24.718Z,34.70
2018-04-17T17:10:52.285Z,35.10
2018-04-17T17:13:19.861Z,34.90
2018-04-17T17:15:47.409Z,35.50
2018-04-17T17:18:14.994Z,35.20
2018-04-17T17:20:42.545Z,35.40
2018-04-17T17:23:10.524Z,35.00
2018-04-17T17:25:38.801Z,35.30
2018-04-17T17:28:06.419Z,35.60
2018-04-17T17:30:33.973Z,35.60
2018-04-17T17:33:03.174Z,36.10
2018-04-17T17:35:30.720Z,35.90
2018-04-17T17:37:58.288Z,36.20
2018-04-17T17:40:26.632Z,36.20
2018-04-17T17:42:54.208Z,36.50
2018-04-17T17:45:21.769Z,36.60
2018-04-17T17:47:49.403Z,36.80
2018-04-17T17:50:16.954Z,36.60
2018-04-17T17:52:45.293Z,36.90
2018-04-17T17:55:12.866Z,36.80
2018-04-17T17:57:40.414Z,36.70
2018-04-17T18:00:07.989Z,36.60
2018-04-17T18:02:36.310Z,37.20
2018-04-17T18:05:03.901Z,37.30
2018-04-17T18:07:31.469Z,37.10
2018-04-17T18:09:59.049Z,37.40
2018-04-17T18:12:26.729Z,37.40
2018-04-17T18:14:54.302Z,37.30
2018-04-17T18:17:21.859Z,38.80
2018-04-17T18:19:49.430Z,39.60
2018-04-17T18:22:16.978Z,40.10
2018-04-17T18:24:44.777Z,41.60
2018-04-17T18:27:12.324Z,40.50
2018-04-17T18:29:40.367Z,40.50
2018-04-17T18:32:07.970Z,41.10
2018-04-17T18:34:35.529Z,41.70
2018-04-17T18:37:03.130Z,41.70
2018-04-17T18:39:30.733Z,40.80
2018-04-17T18:41:58.462Z,40.90
2018-04-17T18:44:26.077Z,41.60
2018-04-17T18:46:53.852Z,42.30
2018-04-17T18:49:21.484Z,41.60
2018-04-17T18:51:49.335Z,42.00
2018-04-17T18:54:17.002Z,41.20
2018-04-17T18:56:44.555Z,45.20
2018-04-17T18:59:12.501Z,43.30
2018-04-17T19:01:40.575Z,42.30
2018-04-17T19:04:08.578Z,43.00
2018-04-17T19:06:37.296Z,43.90
2018-04-17T19:09:06.065Z,43.80
2018-04-17T19:11:33.885Z,43.50
2018-04-17T19:14:01.769Z,45.10
2018-04-17T19:16:29.600Z,45.00
2018-04-17T19:18:57.825Z,46.10
2018-04-17T19:21:26.985Z,44.70
2018-04-17T19:23:54.833Z,45.20
2018-04-17T19:26:22.719Z,44.30
2018-04-17T19:28:50.301Z,45.40
2018-04-17T19:31:17.878Z,45.20
2018-04-17T19:33:45.429Z,47.10
2018-04-17T19:36:13.005Z,43.80
2018-04-17T19:38:40.557Z,46.50
2018-04-17T19:41:08.129Z,46.70
2018-04-17T19:43:35.685Z,48.00
2018-04-17T19:46:03.257Z,48.40
2018-04-17T19:48:30.809Z,45.10
2018-04-17T19:50:59.443Z,45.70
2018-04-17T19:53:26.998Z,45.60
2018-04-17T19:55:54.564Z,45.50
2018-04-17T19:58:22.137Z,45.70
2018-04-17T20:00:50.017Z,49.40
2018-04-17T20:03:17.598Z,46.10
2018-04-17T20:05:45.169Z,49.40
2018-04-17T20:08:13.485Z,48.80
2018-04-17T20:10:41.045Z,48.70
2018-04-17T20:13:08.673Z,47.10
2018-04-17T20:15:36.239Z,47.80
2018-04-17T20:18:03.789Z,47.00
2018-04-17T20:20:31.370Z,45.60
2018-04-17T20:22:58.920Z,46.40
2018-04-17T20:25:26.484Z,47.80
2018-04-17T20:27:54.034Z,48.50
2018-04-17T20:30:21.606Z,50.40
2018-04-17T20:32:49.246Z,50.10
2018-04-17T20:35:16.817Z,48.60
2018-04-17T20:37:44.367Z,51.00
2018-04-17T20:40:11.937Z,51.60
2018-04-17T20:42:39.489Z,48.70
2018-04-17T20:45:07.064Z,51.30
2018-04-17T20:47:34.613Z,51.50
2018-04-17T20:50:02.234Z,50.90
2018-04-17T20:52:29.785Z,48.30
2018-04-17T20:54:57.352Z,50.20
2018-04-17T20:57:24.908Z,49.50
2018-04-17T20:59:52.448Z,48.80
2018-04-17T21:02:20.022Z,49.10
2018-04-17T21:04:47.718Z,50.50
2018-04-17T21:07:15.294Z,51.40
2018-04-17T21:09:42.841Z,52.50
2018-04-17T21:12:10.415Z,49.60
2018-04-17T21:14:37.965Z,49.10
2018-04-17T21:17:05.542Z,49.90
2018-04-17T21:19:33.093Z,50.30
2018-04-17T21:22:00.666Z,53.20
2018-04-17T21:24:28.211Z,50.30
2018-04-17T21:26:55.774Z,49.80
2018-04-17T21:29:23.330Z,48.90
2018-04-17T21:31:50.906Z,52.10
2018-04-17T21:34:19.244Z,49.30
2018-04-17T21:36:46.818Z,53.70
2018-04-17T21:39:14.417Z,51.50
2018-04-17T21:41:41.989Z,50.10
2018-04-17T21:44:09.545Z,51.10
2018-04-17T21:46:37.117Z,50.40
2018-04-17T21:49:04.669Z,53.80
2018-04-17T21:51:32.233Z,52.50
2018-04-17T21:54:00.554Z,52.20
2018-04-17T21:56:28.135Z,52.20
2018-04-17T21:58:55.738Z,51.70
2018-04-17T22:01:29.177Z,54.20
2018-04-17T22:03:56.732Z,53.40
2018-04-17T22:06:24.306Z,54.00
2018-04-17T22:08:51.858Z,55.50
2018-04-17T22:11:19.434Z,53.00
2018-04-17T22:13:46.991Z,54.20
2018-04-17T22:16:15.374Z,57.90
2018-04-17T22:18:42.919Z,57.10
2018-04-17T22:21:10.497Z,56.60
2018-04-17T22:23:38.045Z,54.40
2018-04-17T22:26:05.620Z,57.30
2018-04-17T22:28:33.178Z,54.60
2018-04-17T22:31:00.729Z,57.30
2018-04-17T22:33:28.297Z,53.10
2018-04-17T22:35:55.853Z,52.70
2018-04-17T22:38:23.421Z,59.40
2018-04-17T22:40:51.742Z,55.70
2018-04-17T22:43:19.312Z,55.60
2018-04-17T22:45:46.863Z,55.90
2018-04-17T22:48:14.437Z,57.60
2018-04-17T22:50:41.992Z,52.60
2018-04-17T22:53:09.553Z,53.90
2018-04-17T22:55:37.105Z,57.50
2018-04-17T22:58:04.716Z,54.50
2018-04-17T23:00:32.256Z,56.50
2018-04-17T23:02:59.827Z,56.80
2018-04-17T23:05:27.377Z,52.20
2018-04-17T23:07:54.949Z,55.40
2018-04-17T23:10:23.257Z,54.50
2018-04-17T23:12:50.835Z,54.30
2018-04-17T23:15:18.566Z,56.70
2018-04-17T23:17:46.144Z,54.50
2018-04-17T23:20:13.692Z,57.50
2018-04-17T23:22:41.262Z,52.60
2018-04-17T23:25:08.823Z,54.90
2018-04-17T23:27:36.393Z,58.30
2018-04-17T23:30:03.942Z,52.00
2018-04-17T23:32:31.517Z,56.70
2018-04-17T23:34:59.061Z,53.80
2018-04-17T23:37:26.629Z,58.40
2018-04-17T23:39:54.181Z,56.50
2018-04-17T23:42:21.753Z,54.20
2018-04-17T23:44:49.297Z,54.00
2018-04-17T23:47:16.869Z,53.10
2018-04-17T23:49:44.425Z,53.50
2018-04-17T23:52:12.002Z,55.30
2018-04-17T23:54:39.554Z,54.60
2018-04-17T23:57:07.129Z,58.50
2018-04-17T23:59:34.676Z,56.20
